Time,TemperatureF,DewpointF,PressureIn,WindDirection,WindDirectionDegrees,WindSpeedMPH,WindSpeedGustMPH,Humidity,HourlyPrecipIn,Conditions,Clouds,dailyrainin,SoftwareType,DateUTC
2013-01-18 00:00:00,20.9,7.6,30.35,WNW,293,0.4,1.8,56,0.00,,,0.00,WUHU216HW,2013-01-18 05:00:00,
2013-01-18 00:01:00,20.9,7.6,30.35,WNW,293,0.4,1.8,56,0.00,,,0.00,WUHU216HW,2013-01-18 05:01:00,
2013-01-18 00:03:00,20.9,7.6,30.35,West,270,1.8,1.8,56,0.00,,,0.00,WUHU216HW,2013-01-18 05:03:00,
2013-01-18 00:08:00,20.9,7.6,30.35,West,270,0.2,1.8,56,0.00,,,0.00,WUHU216HW,2013-01-18 05:08:00,
2013-01-18 00:13:00,20.9,7.9,30.35,WNW,293,0.2,1.8,57,0.00,,,0.00,WUHU216HW,2013-01-18 05:13:00,
2013-01-18 00:18:00,20.9,7.9,30.35,WNW,293,0.4,1.1,57,0.00,,,0.00,WUHU216HW,2013-01-18 05:18:00,
2013-01-18 00:23:00,20.9,7.9,30.35,WNW,293,0.9,1.3,57,0.00,,,0.00,WUHU216HW,2013-01-18 05:23:00,
2013-01-18 00:28:00,20.9,7.9,30.36,SW,225,0.7,1.3,57,0.00,,,0.00,WUHU216HW,2013-01-18 05:28:00,
2013-01-18 00:33:00,21.1,8.1,30.36,WNW,293,0.7,1.8,57,0.00,,,0.00,WUHU216HW,2013-01-18 05:33:00,
2013-01-18 00:38:00,21.1,8.1,30.36,NW,315,1.3,1.8,57,0.00,,,0.00,WUHU216HW,2013-01-18 05:38:00,
2013-01-18 00:43:00,21.1,8.1,30.36,WSW,248,0.4,3.4,57,0.00,,,0.00,WUHU216HW,2013-01-18 05:43:00,
2013-01-18 00:48:00,21.1,8.6,30.37,WNW,293,2.2,3.4,58,0.00,,,0.00,WUHU216HW,2013-01-18 05:48:00,
2013-01-18 00:53:00,21.2,8.7,30.37,WNW,293,0.4,2.2,58,0.00,,,0.00,WUHU216HW,2013-01-18 05:53:00,
2013-01-18 00:58:00,21.2,8.7,30.38,ESE,113,0.4,1.1,58,0.00,,,0.00,WUHU216HW,2013-01-18 05:58:00,
2013-01-18 01:03:00,21.2,8.7,30.38,WSW,248,0.7,0.9,58,0.00,,,0.00,WUHU216HW,2013-01-18 06:03:00,
2013-01-18 01:08:00,21.2,8.7,30.38,NNW,338,1.8,1.8,58,0.00,,,0.00,WUHU216HW,2013-01-18 06:08:00,
2013-01-18 01:13:00,21.2,8.7,30.38,WNW,293,0.2,2.2,58,0.00,,,0.00,WUHU216HW,2013-01-18 06:13:00,
2013-01-18 01:18:00,21.2,8.7,30.38,NW,315,0.0,2.2,58,0.00,,,0.00,WUHU216HW,2013-01-18 06:18:00,
2013-01-18 01:23:00,21.2,8.7,30.39,West,270,1.8,1.8,58,0.00,,,0.00,WUHU216HW,2013-01-18 06:23:00,
2013-01-18 01:28:00,21.2,8.7,30.39,WNW,293,1.1,1.8,58,0.00,,,0.00,WUHU216HW,2013-01-18 06:28:00,
2013-01-18 01:33:00,21.2,8.7,30.39,WNW,293,0.0,1.1,58,0.00,,,0.00,WUHU216HW,2013-01-18 06:33:00,
2013-01-18 01:38:00,21.2,8.7,30.39,WNW,293,0.0,0.9,58,0.00,,,0.00,WUHU216HW,2013-01-18 06:38:00,
2013-01-18 02:00:00,21.2,9.1,30.40,WSW,248,0.4,0.4,59,0.00,,,0.00,WUHU216HW,2013-01-18 07:00:00,
2013-01-18 02:05:00,21.1,8.9,30.40,NNW,338,0.4,1.3,59,0.00,,,0.00,WUHU216HW,2013-01-18 07:05:00,
2013-01-18 02:10:00,21.1,9.4,30.41,SE,135,0.0,1.3,60,0.00,,,0.00,WUHU216HW,2013-01-18 07:10:00,
2013-01-18 02:15:00,20.9,9.2,30.41,WNW,293,0.0,0.4,60,0.00,,,0.00,WUHU216HW,2013-01-18 07:15:00,
2013-01-18 02:20:00,20.7,9.0,30.41,West,270,0.4,1.1,60,0.00,,,0.00,WUHU216HW,2013-01-18 07:20:00,
2013-01-18 02:25:00,20.7,9.0,30.41,NW,315,0.2,1.1,60,0.00,,,0.00,WUHU216HW,2013-01-18 07:25:00,
2013-01-18 02:30:00,20.9,9.2,30.41,NNE,23,0.2,0.7,60,0.00,,,0.00,WUHU216HW,2013-01-18 07:30:00,
2013-01-18 02:35:00,20.7,9.0,30.42,WSW,248,0.4,1.1,60,0.00,,,0.00,WUHU216HW,2013-01-18 07:35:00,
2013-01-18 02:40:00,20.5,8.8,30.42,West,270,0.0,1.1,60,0.00,,,0.00,WUHU216HW,2013-01-18 07:40:00,
2013-01-18 02:45:00,20.5,8.8,30.43,West,270,0.0,0.4,60,0.00,,,0.00,WUHU216HW,2013-01-18 07:45:00,
2013-01-18 02:50:00,20.5,9.2,30.43,WNW,293,0.4,0.4,61,0.00,,,0.00,WUHU216HW,2013-01-18 07:50:00,
2013-01-18 02:55:00,20.7,9.4,30.43,WNW,293,0.0,0.4,61,0.00,,,0.00,WUHU216HW,2013-01-18 07:55:00,
2013-01-18 03:00:00,20.5,9.2,30.43,WNW,293,0.0,0.2,61,0.00,,,0.00,WUHU216HW,2013-01-18 08:00:00,
2013-01-18 03:05:00,20.5,9.2,30.44,WNW,293,0.0,0.0,61,0.00,,,0.00,WUHU216HW,2013-01-18 08:05:00,
2013-01-18 03:10:00,20.5,9.2,30.44,WNW,293,0.0,0.0,61,0.00,,,0.00,WUHU216HW,2013-01-18 08:10:00,
2013-01-18 03:15:00,20.5,9.2,30.44,WNW,293,0.0,0.0,61,0.00,,,0.00,WUHU216HW,2013-01-18 08:15:00,
2013-01-18 03:20:00,20.5,9.2,30.45,WNW,293,0.0,0.0,61,0.00,,,0.00,WUHU216HW,2013-01-18 08:20:00,
2013-01-18 03:25:00,20.3,9.0,30.45,WNW,293,0.0,0.0,61,0.00,,,0.00,WUHU216HW,2013-01-18 08:25:00,
2013-01-18 03:30:00,20.2,8.8,30.45,WSW,248,0.0,0.2,61,0.00,,,0.00,WUHU216HW,2013-01-18 08:30:00,
2013-01-18 03:35:00,20.0,8.7,30.45,NW,315,0.0,0.2,61,0.00,,,0.00,WUHU216HW,2013-01-18 08:35:00,
2013-01-18 03:40:00,20.0,8.7,30.45,NW,315,0.0,0.2,61,0.00,,,0.00,WUHU216HW,2013-01-18 08:40:00,
2013-01-18 03:45:00,20.0,9.0,30.45,NW,315,0.0,0.0,62,0.00,,,0.00,WUHU216HW,2013-01-18 08:45:00,
2013-01-18 03:50:00,20.0,9.0,30.45,NW,315,1.3,1.3,62,0.00,,,0.00,WUHU216HW,2013-01-18 08:50:00,
2013-01-18 03:55:00,20.0,9.0,30.45,WNW,293,0.0,1.3,62,0.00,,,0.00,WUHU216HW,2013-01-18 08:55:00,
2013-01-18 04:00:00,20.0,9.0,30.45,NW,315,0.0,0.2,62,0.00,,,0.00,WUHU216HW,2013-01-18 09:00:00,
2013-01-18 04:05:00,20.2,9.2,30.45,WNW,293,0.4,0.4,62,0.00,,,0.00,WUHU216HW,2013-01-18 09:05:00,
2013-01-18 04:10:00,20.0,9.0,30.44,WNW,293,0.2,0.7,62,0.00,,,0.00,WUHU216HW,2013-01-18 09:10:00,
2013-01-18 04:15:00,20.0,8.7,30.45,WNW,293,0.4,0.9,61,0.00,,,0.00,WUHU216HW,2013-01-18 09:15:00,
2013-01-18 04:20:00,20.0,8.7,30.44,NW,315,0.2,1.1,61,0.00,,,0.00,WUHU216HW,2013-01-18 09:20:00,
2013-01-18 04:25:00,20.0,8.7,30.45,NW,315,0.2,1.1,61,0.00,,,0.00,WUHU216HW,2013-01-18 09:25:00,
2013-01-18 04:30:00,20.2,8.8,30.45,NW,315,0.4,0.4,61,0.00,,,0.00,WUHU216HW,2013-01-18 09:30:00,
2013-01-18 04:35:00,20.0,8.7,30.45,NW,315,0.0,0.7,61,0.00,,,0.00,WUHU216HW,2013-01-18 09:35:00,
2013-01-18 04:40:00,20.0,8.7,30.44,NW,315,0.4,1.1,61,0.00,,,0.00,WUHU216HW,2013-01-18 09:40:00,
2013-01-18 04:45:00,20.0,8.7,30.44,NW,315,0.2,1.1,61,0.00,,,0.00,WUHU216HW,2013-01-18 09:45:00,
2013-01-18 04:50:00,19.8,8.5,30.44,NW,315,0.0,0.2,61,0.00,,,0.00,WUHU216HW,2013-01-18 09:50:00,
2013-01-18 04:55:00,19.8,8.5,30.44,WNW,293,0.0,0.0,61,0.00,,,0.00,WUHU216HW,2013-01-18 09:55:00,
2013-01-18 05:00:00,19.6,8.3,30.44,NW,315,0.0,0.2,61,0.00,,,0.00,WUHU216HW,2013-01-18 10:00:00,
2013-01-18 05:05:00,19.4,8.1,30.44,NW,315,0.2,0.4,61,0.00,,,0.00,WUHU216HW,2013-01-18 10:05:00,
2013-01-18 05:10:00,19.4,8.1,30.45,NW,315,0.0,0.4,61,0.00,,,0.00,WUHU216HW,2013-01-18 10:10:00,
2013-01-18 05:15:00,19.4,8.1,30.45,NW,315,0.0,0.2,61,0.00,,,0.00,WUHU216HW,2013-01-18 10:15:00,
2013-01-18 05:20:00,19.3,7.9,30.45,NW,315,0.0,0.0,61,0.00,,,0.00,WUHU216HW,2013-01-18 10:20:00,
2013-01-18 05:25:00,19.1,7.7,30.46,NW,315,0.0,0.2,61,0.00,,,0.00,WUHU216HW,2013-01-18 10:25:00,
2013-01-18 05:30:00,19.1,7.7,30.46,NW,315,0.0,0.2,61,0.00,,,0.00,WUHU216HW,2013-01-18 10:30:00,
2013-01-18 05:35:00,18.9,7.6,30.46,NW,315,0.0,0.0,61,0.00,,,0.00,WUHU216HW,2013-01-18 10:35:00,
2013-01-18 05:40:00,18.9,7.6,30.47,NW,315,0.0,0.0,61,0.00,,,0.00,WUHU216HW,2013-01-18 10:40:00,
2013-01-18 05:45:00,18.7,7.5,30.47,NW,315,0.0,0.0,61,0.00,,,0.00,WUHU216HW,2013-01-18 10:45:00,
2013-01-18 05:50:00,18.7,7.5,30.47,NW,315,0.0,0.0,61,0.00,,,0.00,WUHU216HW,2013-01-18 10:50:00,
2013-01-18 05:55:00,18.7,7.5,30.47,NW,315,0.0,0.0,61,0.00,,,0.00,WUHU216HW,2013-01-18 10:55:00,
2013-01-18 06:00:00,18.7,7.5,30.47,NW,315,0.0,0.0,61,0.00,,,0.00,WUHU216HW,2013-01-18 11:00:00,
2013-01-18 06:05:00,18.7,7.5,30.47,NW,315,0.0,0.0,61,0.00,,,0.00,WUHU216HW,2013-01-18 11:05:00,
2013-01-18 06:10:00,18.7,7.5,30.48,NW,315,0.0,0.0,61,0.00,,,0.00,WUHU216HW,2013-01-18 11:10:00,
2013-01-18 06:15:00,18.7,7.7,30.48,NW,315,0.0,0.0,62,0.00,,,0.00,WUHU216HW,2013-01-18 11:15:00,
2013-01-18 06:20:00,18.9,7.9,30.47,NW,315,0.0,0.0,62,0.00,,,0.00,WUHU216HW,2013-01-18 11:20:00,
2013-01-18 06:25:00,18.9,7.9,30.47,NW,315,0.0,0.0,62,0.00,,,0.00,WUHU216HW,2013-01-18 11:25:00,
2013-01-18 06:30:00,18.9,7.9,30.47,NW,315,0.0,0.0,62,0.00,,,0.00,WUHU216HW,2013-01-18 11:30:00,
2013-01-18 06:35:00,18.9,7.9,30.47,NW,315,0.0,0.0,62,0.00,,,0.00,WUHU216HW,2013-01-18 11:35:00,
2013-01-18 06:40:00,19.1,8.1,30.47,NW,315,0.0,0.0,62,0.00,,,0.00,WUHU216HW,2013-01-18 11:40:00,
2013-01-18 06:45:00,19.1,8.1,30.47,NW,315,0.0,0.0,62,0.00,,,0.00,WUHU216HW,2013-01-18 11:45:00,
2013-01-18 06:50:00,18.9,7.9,30.47,NW,315,0.0,0.0,62,0.00,,,0.00,WUHU216HW,2013-01-18 11:50:00,
2013-01-18 06:55:00,18.9,7.9,30.48,NW,315,0.0,0.0,62,0.00,,,0.00,WUHU216HW,2013-01-18 11:55:00,
2013-01-18 07:00:00,18.9,7.9,30.48,NW,315,0.0,0.0,62,0.00,,,0.00,WUHU216HW,2013-01-18 12:00:00,
2013-01-18 07:05:00,18.9,7.9,30.48,NW,315,0.0,0.0,62,0.00,,,0.00,WUHU216HW,2013-01-18 12:05:00,
2013-01-18 07:10:00,18.7,7.7,30.48,NW,315,0.0,0.0,62,0.00,,,0.00,WUHU216HW,2013-01-18 12:10:00,
2013-01-18 07:15:00,18.7,7.5,30.48,NW,315,0.0,0.0,61,0.00,,,0.00,WUHU216HW,2013-01-18 12:15:00,
2013-01-18 07:20:00,18.5,7.3,30.48,NW,315,0.0,0.0,61,0.00,,,0.00,WUHU216HW,2013-01-18 12:20:00,
2013-01-18 07:25:00,18.5,7.3,30.48,NW,315,0.0,0.0,61,0.00,,,0.00,WUHU216HW,2013-01-18 12:25:00,
2013-01-18 07:30:00,18.5,7.3,30.48,NW,315,0.0,0.0,61,0.00,,,0.00,WUHU216HW,2013-01-18 12:30:00,
2013-01-18 07:52:00,18.0,7.5,30.48,NW,315,0.0,0.0,63,0.00,,,0.00,WUHU216HW,2013-01-18 12:52:00,
2013-01-18 07:57:00,17.8,7.3,30.48,NW,315,0.0,0.0,63,0.00,,,0.00,WUHU216HW,2013-01-18 12:57:00,
2013-01-18 08:02:00,17.6,7.1,30.47,NW,315,0.0,0.0,63,0.00,,,0.00,WUHU216HW,2013-01-18 13:02:00,
2013-01-18 08:07:00,17.6,7.5,30.47,NW,315,0.0,0.0,64,0.00,,,0.00,WUHU216HW,2013-01-18 13:07:00,
2013-01-18 08:12:00,17.6,7.5,30.47,NW,315,0.0,0.0,64,0.00,,,0.00,WUHU216HW,2013-01-18 13:12:00,
2013-01-18 08:17:00,17.6,7.5,30.47,NW,315,0.0,0.0,64,0.00,,,0.00,WUHU216HW,2013-01-18 13:17:00,
2013-01-18 08:22:00,17.5,7.3,30.47,NW,315,0.0,0.0,64,0.00,,,0.00,WUHU216HW,2013-01-18 13:22:00,
2013-01-18 08:27:00,17.3,7.1,30.47,NW,315,0.0,0.0,64,0.00,,,0.00,WUHU216HW,2013-01-18 13:27:00,
2013-01-18 08:32:00,17.3,7.5,30.47,NW,315,0.0,0.0,65,0.00,,,0.00,WUHU216HW,2013-01-18 13:32:00,
2013-01-18 08:37:00,17.5,7.7,30.47,NW,315,0.0,0.0,65,0.00,,,0.00,WUHU216HW,2013-01-18 13:37:00,
2013-01-18 08:42:00,17.6,7.8,30.47,NW,315,0.0,0.0,65,0.00,,,0.00,WUHU216HW,2013-01-18 13:42:00,
2013-01-18 08:47:00,18.0,8.2,30.47,NW,315,0.0,0.0,65,0.00,,,0.00,WUHU216HW,2013-01-18 13:47:00,
2013-01-18 08:52:00,18.2,8.3,30.47,NW,315,0.0,0.0,65,0.00,,,0.00,WUHU216HW,2013-01-18 13:52:00,
2013-01-18 08:57:00,18.2,8.3,30.47,NW,315,0.0,0.0,65,0.00,,,0.00,WUHU216HW,2013-01-18 13:57:00,
2013-01-18 09:02:00,19.1,9.1,30.48,WNW,293,0.0,0.4,65,0.00,,,0.00,WUHU216HW,2013-01-18 14:02:00,
2013-01-18 09:07:00,19.3,9.3,30.48,WSW,248,0.2,0.4,65,0.00,,,0.00,WUHU216HW,2013-01-18 14:07:00,
2013-01-18 09:12:00,19.8,9.5,30.48,WSW,248,0.4,0.4,64,0.00,,,0.00,WUHU216HW,2013-01-18 14:12:00,
2013-01-18 09:17:00,20.2,9.5,30.48,WSW,248,0.0,0.4,63,0.00,,,0.00,WUHU216HW,2013-01-18 14:17:00,
2013-01-18 09:22:00,20.3,9.6,30.48,WSW,248,0.4,0.4,63,0.00,,,0.00,WUHU216HW,2013-01-18 14:22:00,
2013-01-18 09:27:00,20.5,9.6,30.48,SE,135,0.4,0.9,62,0.00,,,0.00,WUHU216HW,2013-01-18 14:27:00,
2013-01-18 09:32:00,20.5,9.6,30.48,SW,225,0.4,1.1,62,0.00,,,0.00,WUHU216HW,2013-01-18 14:32:00,
2013-01-18 09:37:00,20.7,9.4,30.48,SE,135,0.4,1.1,61,0.00,,,0.00,WUHU216HW,2013-01-18 14:37:00,
2013-01-18 09:42:00,20.7,9.4,30.48,East,90,1.1,1.1,61,0.00,,,0.00,WUHU216HW,2013-01-18 14:42:00,
2013-01-18 09:47:00,20.9,9.2,30.48,West,270,0.4,2.2,60,0.00,,,0.00,WUHU216HW,2013-01-18 14:47:00,
2013-01-18 09:52:00,21.1,9.7,30.47,ESE,113,1.1,2.2,61,0.00,,,0.00,WUHU216HW,2013-01-18 14:52:00,
2013-01-18 09:57:00,21.2,9.9,30.47,SE,135,0.4,1.3,61,0.00,,,0.00,WUHU216HW,2013-01-18 14:57:00,
2013-01-18 10:02:00,21.2,9.9,30.47,SE,135,0.9,1.8,61,0.00,,,0.00,WUHU216HW,2013-01-18 15:02:00,
2013-01-18 10:07:00,21.6,10.2,30.47,ESE,113,0.9,1.8,61,0.00,,,0.00,WUHU216HW,2013-01-18 15:07:00,
2013-01-18 10:12:00,21.6,10.2,30.47,SSE,158,0.4,1.3,61,0.00,,,0.00,WUHU216HW,2013-01-18 15:12:00,
2013-01-18 10:17:00,21.8,10.4,30.47,SE,135,0.9,1.1,61,0.00,,,0.00,WUHU216HW,2013-01-18 15:17:00,
2013-01-18 10:22:00,21.8,10.4,30.47,SW,225,0.2,1.3,61,0.00,,,0.00,WUHU216HW,2013-01-18 15:22:00,
2013-01-18 10:27:00,22.0,10.5,30.47,West,270,1.1,1.3,61,0.00,,,0.00,WUHU216HW,2013-01-18 15:27:00,
2013-01-18 10:32:00,22.3,10.9,30.47,SW,225,0.4,1.1,61,0.00,,,0.00,WUHU216HW,2013-01-18 15:32:00,
2013-01-18 10:37:00,22.7,11.5,30.47,ESE,113,1.8,1.8,62,0.00,,,0.00,WUHU216HW,2013-01-18 15:37:00,
2013-01-18 10:42:00,22.7,11.9,30.46,East,90,1.3,1.8,63,0.00,,,0.00,WUHU216HW,2013-01-18 15:42:00,
2013-01-18 10:47:00,23.0,12.2,30.46,SE,135,1.1,1.8,63,0.00,,,0.00,WUHU216HW,2013-01-18 15:47:00,
2013-01-18 10:52:00,23.8,13.0,30.46,SW,225,0.4,1.8,63,0.00,,,0.00,WUHU216HW,2013-01-18 15:52:00,
2013-01-18 10:57:00,24.1,13.3,30.46,WSW,248,0.7,1.1,63,0.00,,,0.00,WUHU216HW,2013-01-18 15:57:00,
2013-01-18 11:02:00,24.5,14.0,30.45,SE,135,1.1,1.1,64,0.00,,,0.00,WUHU216HW,2013-01-18 16:02:00,
2013-01-18 11:07:00,24.5,13.7,30.45,SSE,158,0.4,3.8,63,0.00,,,0.00,WUHU216HW,2013-01-18 16:07:00,
2013-01-18 11:12:00,24.5,14.0,30.45,SW,225,1.8,3.8,64,0.00,,,0.00,WUHU216HW,2013-01-18 16:12:00,
2013-01-18 11:17:00,24.7,14.1,30.45,WNW,293,0.4,2.9,64,0.00,,,0.00,WUHU216HW,2013-01-18 16:17:00,
2013-01-18 11:22:00,25.0,14.9,30.45,West,270,1.6,2.9,65,0.00,,,0.00,WUHU216HW,2013-01-18 16:22:00,
2013-01-18 11:27:00,25.2,15.0,30.44,NW,315,0.4,2.2,65,0.00,,,0.00,WUHU216HW,2013-01-18 16:27:00,
2013-01-18 11:32:00,25.4,14.9,30.44,North,0,0.4,1.8,64,0.00,,,0.00,WUHU216HW,2013-01-18 16:32:00,
2013-01-18 11:37:00,25.6,15.0,30.44,WSW,248,0.7,1.8,64,0.00,,,0.00,WUHU216HW,2013-01-18 16:37:00,
2013-01-18 11:42:00,25.7,15.6,30.44,West,270,1.8,2.2,65,0.00,,,0.00,WUHU216HW,2013-01-18 16:42:00,
2013-01-18 11:47:00,25.9,15.7,30.43,WNW,293,0.9,2.2,65,0.00,,,0.00,WUHU216HW,2013-01-18 16:47:00,
2013-01-18 11:52:00,26.3,16.0,30.42,ESE,113,0.2,2.7,65,0.00,,,0.00,WUHU216HW,2013-01-18 16:52:00,
2013-01-18 11:57:00,26.5,16.2,30.41,ESE,113,2.2,2.7,65,0.00,,,0.00,WUHU216HW,2013-01-18 16:57:00,
2013-01-18 12:02:00,26.6,16.4,30.40,ESE,113,0.9,2.5,65,0.00,,,0.00,WUHU216HW,2013-01-18 17:02:00,
2013-01-18 12:07:00,26.6,16.0,30.40,SSE,158,1.8,2.9,64,0.00,,,0.00,WUHU216HW,2013-01-18 17:07:00,
2013-01-18 12:12:00,26.8,16.2,30.39,NW,315,0.7,2.9,64,0.00,,,0.00,WUHU216HW,2013-01-18 17:12:00,
2013-01-18 12:17:00,27.2,16.2,30.39,SE,135,1.6,2.2,63,0.00,,,0.00,WUHU216HW,2013-01-18 17:17:00,
2013-01-18 12:22:00,27.2,16.2,30.38,East,90,1.1,2.2,63,0.00,,,0.00,WUHU216HW,2013-01-18 17:22:00,
2013-01-18 12:27:00,27.5,16.6,30.38,South,180,1.3,3.4,63,0.00,,,0.00,WUHU216HW,2013-01-18 17:27:00,
2013-01-18 12:32:00,27.5,16.6,30.37,SSW,203,1.1,3.4,63,0.00,,,0.00,WUHU216HW,2013-01-18 17:32:00,
2013-01-18 12:37:00,27.9,16.6,30.37,WSW,248,2.2,2.2,62,0.00,,,0.00,WUHU216HW,2013-01-18 17:37:00,
2013-01-18 12:42:00,28.1,16.7,30.37,West,270,1.1,2.2,62,0.00,,,0.00,WUHU216HW,2013-01-18 17:42:00,
2013-01-18 12:47:00,28.4,17.1,30.37,South,180,1.6,1.8,62,0.00,,,0.00,WUHU216HW,2013-01-18 17:47:00,
2013-01-18 12:52:00,28.4,16.7,30.36,WSW,248,1.8,2.5,61,0.00,,,0.00,WUHU216HW,2013-01-18 17:52:00,
2013-01-18 12:57:00,28.4,16.7,30.35,North,0,1.3,2.5,61,0.00,,,0.00,WUHU216HW,2013-01-18 17:57:00,
2013-01-18 13:02:00,28.6,16.9,30.34,SW,225,2.0,2.0,61,0.00,,,0.00,WUHU216HW,2013-01-18 18:02:00,
2013-01-18 13:07:00,28.8,16.8,30.34,SW,225,1.6,2.0,60,0.00,,,0.00,WUHU216HW,2013-01-18 18:07:00,
2013-01-18 13:12:00,29.0,16.5,30.33,NNE,23,1.6,1.8,59,0.00,,,0.00,WUHU216HW,2013-01-18 18:12:00,
2013-01-18 13:17:00,29.3,16.7,30.32,North,0,1.8,2.5,59,0.00,,,0.00,WUHU216HW,2013-01-18 18:17:00,
2013-01-18 13:22:00,30.1,17.0,30.32,SSE,158,2.2,2.5,58,0.00,,,0.00,WUHU216HW,2013-01-18 18:22:00,
2013-01-18 13:27:00,30.6,17.1,30.32,SE,135,0.4,2.5,57,0.00,,,0.00,WUHU216HW,2013-01-18 18:27:00,
2013-01-18 13:32:00,31.1,17.2,30.32,West,270,2.5,2.5,56,0.00,,,0.00,WUHU216HW,2013-01-18 18:32:00,
2013-01-18 13:37:00,31.3,16.9,30.31,SSE,158,1.8,2.5,55,0.00,,,0.00,WUHU216HW,2013-01-18 18:37:00,
2013-01-18 13:42:00,31.7,16.5,30.31,North,0,2.0,6.7,53,0.00,,,0.00,WUHU216HW,2013-01-18 18:42:00,
2013-01-18 13:47:00,31.9,17.0,30.30,NNE,23,1.3,6.7,54,0.00,,,0.00,WUHU216HW,2013-01-18 18:47:00,
2013-01-18 13:52:00,32.0,16.4,30.30,South,180,2.7,3.4,52,0.00,,,0.00,WUHU216HW,2013-01-18 18:52:00,
2013-01-18 13:57:00,32.0,16.4,30.30,NW,315,2.7,4.0,52,0.00,,,0.00,WUHU216HW,2013-01-18 18:57:00,
2013-01-18 14:02:00,31.7,16.0,30.29,ENE,68,2.2,4.0,52,0.00,,,0.00,WUHU216HW,2013-01-18 19:02:00,
2013-01-18 14:07:00,31.5,15.8,30.28,SE,135,3.1,3.6,52,0.00,,,0.00,WUHU216HW,2013-01-18 19:07:00,
2013-01-18 14:12:00,31.3,15.7,30.28,West,270,2.5,4.5,52,0.00,,,0.00,WUHU216HW,2013-01-18 19:12:00,
2013-01-18 14:17:00,31.7,16.5,30.28,South,180,1.8,4.5,53,0.00,,,0.00,WUHU216HW,2013-01-18 19:17:00,
2013-01-18 14:22:00,32.0,16.7,30.27,WSW,248,1.8,3.6,53,0.00,,,0.00,WUHU216HW,2013-01-18 19:22:00,
2013-01-18 14:27:00,32.2,16.9,30.27,SW,225,2.0,2.9,53,0.00,,,0.00,WUHU216HW,2013-01-18 19:27:00,
2013-01-18 14:32:00,32.4,17.6,30.27,NNE,23,1.1,3.4,54,0.00,,,0.00,WUHU216HW,2013-01-18 19:32:00,
2013-01-18 14:37:00,32.8,17.5,30.27,NNE,23,4.0,4.0,53,0.00,,,0.00,WUHU216HW,2013-01-18 19:37:00,
2013-01-18 14:42:00,32.8,17.0,30.26,NNW,338,2.7,4.0,52,0.00,,,0.00,WUHU216HW,2013-01-18 19:42:00,
2013-01-18 14:47:00,33.1,17.7,30.25,West,270,1.3,2.7,53,0.00,,,0.00,WUHU216HW,2013-01-18 19:47:00,
2013-01-18 14:52:00,33.7,17.8,30.25,NW,315,3.6,4.0,52,0.00,,,0.00,WUHU216HW,2013-01-18 19:52:00,
2013-01-18 14:57:00,34.0,17.7,30.24,SSW,203,1.6,4.0,51,0.00,,,0.00,WUHU216HW,2013-01-18 19:57:00,
2013-01-18 15:02:00,33.8,17.6,30.24,ENE,68,3.1,3.6,51,0.00,,,0.00,WUHU216HW,2013-01-18 20:02:00,
2013-01-18 15:07:00,33.5,17.2,30.24,ENE,68,3.8,3.8,51,0.00,,,0.00,WUHU216HW,2013-01-18 20:07:00,
2013-01-18 15:12:00,33.5,17.6,30.24,WNW,293,2.7,3.8,52,0.00,,,0.00,WUHU216HW,2013-01-18 20:12:00,
2013-01-18 15:17:00,33.5,17.6,30.24,SSE,158,2.9,2.9,52,0.00,,,0.00,WUHU216HW,2013-01-18 20:17:00,
2013-01-18 15:22:00,33.7,17.8,30.23,ESE,113,3.4,4.0,52,0.00,,,0.00,WUHU216HW,2013-01-18 20:22:00,
2013-01-18 15:27:00,33.8,18.0,30.22,West,270,4.0,4.7,52,0.00,,,0.00,WUHU216HW,2013-01-18 20:27:00,
2013-01-18 15:32:00,33.8,18.0,30.22,SW,225,4.3,4.9,52,0.00,,,0.00,WUHU216HW,2013-01-18 20:32:00,
2013-01-18 15:37:00,33.8,18.4,30.22,SE,135,3.6,4.9,53,0.00,,,0.00,WUHU216HW,2013-01-18 20:37:00,
2013-01-18 15:42:00,34.0,18.5,30.22,SE,135,5.1,5.1,53,0.00,,,0.00,WUHU216HW,2013-01-18 20:42:00,
2013-01-18 15:47:00,33.7,18.6,30.21,NW,315,1.1,5.1,54,0.00,,,0.00,WUHU216HW,2013-01-18 20:47:00,
2013-01-18 15:52:00,33.8,18.8,30.21,NNW,338,3.4,4.5,54,0.00,,,0.00,WUHU216HW,2013-01-18 20:52:00,
2013-01-18 15:57:00,34.0,19.0,30.22,WSW,248,3.4,4.5,54,0.00,,,0.00,WUHU216HW,2013-01-18 20:57:00,
2013-01-18 16:02:00,33.8,18.8,30.22,NW,315,4.7,4.7,54,0.00,,,0.00,WUHU216HW,2013-01-18 21:02:00,
2013-01-18 16:07:00,33.8,18.8,30.22,SE,135,2.5,4.7,54,0.00,,,0.00,WUHU216HW,2013-01-18 21:07:00,
2013-01-18 16:12:00,33.8,18.8,30.22,SE,135,2.5,3.6,54,0.00,,,0.00,WUHU216HW,2013-01-18 21:12:00,
2013-01-18 16:34:00,32.9,18.9,30.19,SSW,203,2.5,2.5,56,0.00,,,0.00,WUHU216HW,2013-01-18 21:34:00,
2013-01-18 16:39:00,33.1,19.1,30.19,SSW,203,3.6,3.6,56,0.00,,,0.00,WUHU216HW,2013-01-18 21:39:00,
2013-01-18 16:44:00,33.1,19.1,30.18,SW,225,3.4,3.8,56,0.00,,,0.00,WUHU216HW,2013-01-18 21:44:00,
2013-01-18 16:49:00,32.8,19.2,30.18,SE,135,5.1,5.1,57,0.00,,,0.00,WUHU216HW,2013-01-18 21:49:00,
2013-01-18 16:54:00,32.8,19.2,30.18,South,180,2.5,5.1,57,0.00,,,0.00,WUHU216HW,2013-01-18 21:54:00,
2013-01-18 16:59:00,32.6,19.5,30.18,SE,135,1.6,4.5,58,0.00,,,0.00,WUHU216HW,2013-01-18 21:59:00,
2013-01-18 17:04:00,32.6,19.5,30.17,SSE,158,2.5,4.5,58,0.00,,,0.00,WUHU216HW,2013-01-18 22:04:00,
2013-01-18 17:09:00,32.6,19.5,30.17,South,180,3.4,3.4,58,0.00,,,0.00,WUHU216HW,2013-01-18 22:09:00,
2013-01-18 17:14:00,32.6,19.9,30.17,North,0,3.6,4.7,59,0.00,,,0.00,WUHU216HW,2013-01-18 22:14:00,
2013-01-18 17:19:00,32.4,19.7,30.16,WSW,248,3.4,4.7,59,0.00,,,0.00,WUHU216HW,2013-01-18 22:19:00,
2013-01-18 17:24:00,32.4,20.2,30.16,South,180,1.1,3.4,60,0.00,,,0.00,WUHU216HW,2013-01-18 22:24:00,
2013-01-18 17:29:00,32.4,20.2,30.16,SSE,158,2.7,5.6,60,0.00,,,0.00,WUHU216HW,2013-01-18 22:29:00,
2013-01-18 17:34:00,32.4,20.2,30.16,SW,225,0.7,5.6,60,0.00,,,0.00,WUHU216HW,2013-01-18 22:34:00,
2013-01-18 17:39:00,32.4,20.2,30.16,SW,225,0.7,0.7,60,0.00,,,0.00,WUHU216HW,2013-01-18 22:39:00,
2013-01-18 17:59:00,32.6,20.3,30.14,NW,315,3.1,3.1,60,0.00,,,0.00,WUHU216HW,2013-01-18 22:59:00,
2013-01-18 18:04:00,32.6,20.3,30.14,WNW,293,2.7,3.1,60,0.00,,,0.00,WUHU216HW,2013-01-18 23:04:00,
2013-01-18 18:09:00,32.8,20.4,30.14,West,270,2.9,4.9,60,0.00,,,0.00,WUHU216HW,2013-01-18 23:09:00,
2013-01-18 18:14:00,32.8,20.4,30.14,WSW,248,2.5,4.9,60,0.00,,,0.00,WUHU216HW,2013-01-18 23:14:00,
2013-01-18 18:19:00,32.8,20.4,30.14,NW,315,1.1,3.1,60,0.00,,,0.00,WUHU216HW,2013-01-18 23:19:00,
2013-01-18 18:24:00,32.8,20.8,30.13,East,90,3.4,3.4,61,0.00,,,0.00,WUHU216HW,2013-01-18 23:24:00,
2013-01-18 18:29:00,32.8,20.4,30.13,SE,135,2.2,3.4,60,0.00,,,0.00,WUHU216HW,2013-01-18 23:29:00,
2013-01-18 18:34:00,32.8,20.4,30.13,WSW,248,2.5,3.4,60,0.00,,,0.00,WUHU216HW,2013-01-18 23:34:00,
2013-01-18 18:39:00,32.8,20.0,30.12,NNE,23,2.9,3.4,59,0.00,,,0.00,WUHU216HW,2013-01-18 23:39:00,
2013-01-18 18:44:00,32.8,20.0,30.12,SSE,158,2.2,5.8,59,0.00,,,0.00,WUHU216HW,2013-01-18 23:44:00,
2013-01-18 18:49:00,32.8,20.0,30.12,SE,135,1.8,5.8,59,0.00,,,0.00,WUHU216HW,2013-01-18 23:49:00,
2013-01-18 18:54:00,32.8,20.0,30.12,NW,315,2.5,4.3,59,0.00,,,0.00,WUHU216HW,2013-01-18 23:54:00,
2013-01-18 18:59:00,32.8,20.0,30.12,NNW,338,1.8,3.8,59,0.00,,,0.00,WUHU216HW,2013-01-18 23:59:00,
2013-01-18 19:04:00,32.8,20.0,30.11,WSW,248,1.3,3.4,59,0.00,,,0.00,WUHU216HW,2013-01-19 00:04:00,
2013-01-18 19:09:00,32.8,20.0,30.10,SW,225,1.6,3.4,59,0.00,,,0.00,WUHU216HW,2013-01-19 00:09:00,
2013-01-18 19:14:00,32.6,19.9,30.10,NNW,338,3.6,4.3,59,0.00,,,0.00,WUHU216HW,2013-01-19 00:14:00,
2013-01-18 19:19:00,32.6,19.9,30.10,WSW,248,2.0,4.3,59,0.00,,,0.00,WUHU216HW,2013-01-19 00:19:00,
2013-01-18 19:24:00,32.4,19.7,30.10,North,0,3.8,4.3,59,0.00,,,0.00,WUHU216HW,2013-01-19 00:24:00,
2013-01-18 19:29:00,32.4,19.7,30.10,NNW,338,2.5,3.8,59,0.00,,,0.00,WUHU216HW,2013-01-19 00:29:00,
2013-01-18 19:34:00,32.4,19.7,30.10,NW,315,2.0,3.1,59,0.00,,,0.00,WUHU216HW,2013-01-19 00:34:00,
2013-01-18 19:39:00,32.4,19.7,30.09,SW,225,4.3,4.3,59,0.00,,,0.00,WUHU216HW,2013-01-19 00:39:00,
2013-01-18 19:44:00,32.4,19.7,30.09,WSW,248,3.6,4.3,59,0.00,,,0.00,WUHU216HW,2013-01-19 00:44:00,
2013-01-18 19:49:00,32.4,19.7,30.09,NE,45,0.4,5.1,59,0.00,,,0.00,WUHU216HW,2013-01-19 00:49:00,
2013-01-18 19:54:00,32.4,19.3,30.08,WNW,293,2.7,5.1,58,0.00,,,0.00,WUHU216HW,2013-01-19 00:54:00,
2013-01-18 19:59:00,32.4,19.3,30.08,WSW,248,4.7,4.7,58,0.00,,,0.00,WUHU216HW,2013-01-19 00:59:00,
2013-01-18 20:04:00,32.6,19.5,30.08,SSE,158,2.5,4.9,58,0.00,,,0.00,WUHU216HW,2013-01-19 01:04:00,
2013-01-18 20:09:00,32.4,19.3,30.08,WSW,248,3.1,4.9,58,0.00,,,0.00,WUHU216HW,2013-01-19 01:09:00,
2013-01-18 20:14:00,32.6,19.5,30.09,WNW,293,4.0,4.0,58,0.00,,,0.00,WUHU216HW,2013-01-19 01:14:00,
2013-01-18 20:19:00,32.6,19.5,30.08,West,270,1.3,4.0,58,0.00,,,0.00,WUHU216HW,2013-01-19 01:19:00,
2013-01-18 20:24:00,32.6,19.5,30.08,North,0,2.2,4.9,58,0.00,,,0.00,WUHU216HW,2013-01-19 01:24:00,
2013-01-18 20:29:00,32.6,19.5,30.08,SSW,203,3.4,4.9,58,0.00,,,0.00,WUHU216HW,2013-01-19 01:29:00,
2013-01-18 20:34:00,32.6,19.5,30.08,NW,315,2.0,3.4,58,0.00,,,0.00,WUHU216HW,2013-01-19 01:34:00,
2013-01-18 20:39:00,32.6,19.5,30.08,SW,225,4.0,4.0,58,0.00,,,0.00,WUHU216HW,2013-01-19 01:39:00,
2013-01-18 20:44:00,32.6,19.5,30.07,SW,225,2.5,4.0,58,0.00,,,0.00,WUHU216HW,2013-01-19 01:44:00,
2013-01-18 20:49:00,32.6,19.9,30.08,SSE,158,2.9,2.9,59,0.00,,,0.00,WUHU216HW,2013-01-19 01:49:00,
2013-01-18 20:54:00,32.6,19.9,30.08,West,270,1.3,4.0,59,0.00,,,0.00,WUHU216HW,2013-01-19 01:54:00,
2013-01-18 20:59:00,32.6,19.9,30.08,West,270,2.2,4.0,59,0.00,,,0.00,WUHU216HW,2013-01-19 01:59:00,
2013-01-18 21:04:00,32.6,19.9,30.08,SSE,158,1.8,4.0,59,0.00,,,0.00,WUHU216HW,2013-01-19 02:04:00,
2013-01-18 21:09:00,32.6,19.9,30.08,West,270,1.6,2.7,59,0.00,,,0.00,WUHU216HW,2013-01-19 02:09:00,
2013-01-18 21:14:00,32.8,20.0,30.08,WNW,293,2.5,3.1,59,0.00,,,0.00,WUHU216HW,2013-01-19 02:14:00,
2013-01-18 21:19:00,32.8,20.0,30.08,South,180,0.4,3.8,59,0.00,,,0.00,WUHU216HW,2013-01-19 02:19:00,
2013-01-18 21:24:00,32.8,20.0,30.08,NNW,338,1.8,3.8,59,0.00,,,0.00,WUHU216HW,2013-01-19 02:24:00,
2013-01-18 21:29:00,32.8,20.0,30.08,NNW,338,1.8,1.8,59,0.00,,,0.00,WUHU216HW,2013-01-19 02:29:00,
2013-01-18 21:50:00,32.8,20.4,30.06,West,270,2.7,2.7,60,0.00,,,0.00,WUHU216HW,2013-01-19 02:50:00,
2013-01-18 21:55:00,32.9,20.6,30.06,West,270,2.0,4.5,60,0.00,,,0.00,WUHU216HW,2013-01-19 02:55:00,
2013-01-18 22:00:00,32.8,20.4,30.06,SE,135,1.8,4.5,60,0.00,,,0.00,WUHU216HW,2013-01-19 03:00:00,
2013-01-18 22:05:00,32.8,20.4,30.06,NNW,338,2.5,3.4,60,0.00,,,0.00,WUHU216HW,2013-01-19 03:05:00,
2013-01-18 22:10:00,32.8,20.4,30.06,SW,225,2.5,3.4,60,0.00,,,0.00,WUHU216HW,2013-01-19 03:10:00,
2013-01-18 22:15:00,32.8,20.4,30.06,South,180,1.3,2.5,60,0.00,,,0.00,WUHU216HW,2013-01-19 03:15:00,
2013-01-18 22:20:00,32.8,20.4,30.06,West,270,3.1,3.1,60,0.00,,,0.00,WUHU216HW,2013-01-19 03:20:00,
2013-01-18 22:25:00,32.8,20.8,30.06,West,270,0.4,3.4,61,0.00,,,0.00,WUHU216HW,2013-01-19 03:25:00,
2013-01-18 22:30:00,32.8,20.8,30.06,NNW,338,1.1,3.4,61,0.00,,,0.00,WUHU216HW,2013-01-19 03:30:00,
2013-01-18 22:35:00,32.8,20.8,30.06,NW,315,2.7,3.1,61,0.00,,,0.00,WUHU216HW,2013-01-19 03:35:00,
2013-01-18 22:40:00,32.8,20.8,30.05,WNW,293,0.9,3.1,61,0.00,,,0.00,WUHU216HW,2013-01-19 03:40:00,
2013-01-18 22:45:00,32.8,20.8,30.05,WNW,293,0.9,2.7,61,0.00,,,0.00,WUHU216HW,2013-01-19 03:45:00,
2013-01-18 22:50:00,32.6,21.0,30.05,NNW,338,1.1,1.8,62,0.00,,,0.00,WUHU216HW,2013-01-19 03:50:00,
2013-01-18 22:55:00,32.6,20.6,30.04,WNW,293,2.5,2.5,61,0.00,,,0.00,WUHU216HW,2013-01-19 03:55:00,
2013-01-18 23:00:00,32.6,21.0,30.04,NW,315,1.1,2.5,62,0.00,,,0.00,WUHU216HW,2013-01-19 04:00:00,
2013-01-18 23:05:00,32.6,21.0,30.04,WSW,248,1.1,3.1,62,0.00,,,0.00,WUHU216HW,2013-01-19 04:05:00,
2013-01-18 23:10:00,32.6,21.0,30.04,West,270,1.3,3.1,62,0.00,,,0.00,WUHU216HW,2013-01-19 04:10:00,
2013-01-18 23:15:00,32.6,21.0,30.03,West,270,2.7,3.4,62,0.00,,,0.00,WUHU216HW,2013-01-19 04:15:00,
2013-01-18 23:20:00,32.8,21.2,30.03,North,0,3.1,3.4,62,0.00,,,0.00,WUHU216HW,2013-01-19 04:20:00,
2013-01-18 23:25:00,32.8,21.2,30.02,SW,225,1.3,3.1,62,0.00,,,0.00,WUHU216HW,2013-01-19 04:25:00,
2013-01-18 23:30:00,32.8,21.2,30.02,East,90,1.8,2.5,62,0.00,,,0.00,WUHU216HW,2013-01-19 04:30:00,
2013-01-18 23:35:00,32.8,21.2,30.02,SSE,158,1.8,2.5,62,0.00,,,0.00,WUHU216HW,2013-01-19 04:35:00,
2013-01-18 23:40:00,32.8,21.2,30.02,WNW,293,1.3,2.7,62,0.00,,,0.00,WUHU216HW,2013-01-19 04:40:00,
2013-01-18 23:45:00,32.9,21.3,30.01,NW,315,1.1,2.9,62,0.00,,,0.00,WUHU216HW,2013-01-19 04:45:00,
2013-01-18 23:50:00,32.9,21.3,30.01,NW,315,1.6,2.9,62,0.00,,,0.00,WUHU216HW,2013-01-19 04:50:00,
2013-01-18 23:55:00,32.9,21.3,30.01,WNW,293,2.2,2.5,62,0.00,,,0.00,WUHU216HW,2013-01-19 04:55:00,